createdAt,value
2023-03-30T00:00:46.080Z,66.65
2023-03-30T00:01:41.195Z,68.60
2023-03-30T00:02:36.320Z,67.14
2023-03-30T00:03:31.479Z,67.63
2023-03-30T00:04:26.541Z,63.72
2023-03-30T00:05:21.440Z,67.87
2023-03-30T00:06:16.502Z,66.65
2023-03-30T00:07:11.778Z,81.54
2023-03-30T00:08:06.732Z,67.38
2023-03-30T00:09:01.905Z,64.45
2023-03-30T00:09:57.057Z,64.45
2023-03-30T00:10:52.142Z,67.14
2023-03-30T00:11:47.574Z,67.63
2023-03-30T00:12:42.869Z,68.60
2023-03-30T00:13:38.124Z,67.14
2023-03-30T00:14:33.316Z,65.19
2023-03-30T00:15:28.456Z,67.63
2023-03-30T00:16:23.838Z,61.28
2023-03-30T00:17:19.195Z,67.38
2023-03-30T00:18:14.419Z,66.41
2023-03-30T00:19:09.623Z,62.26
2023-03-30T00:20:04.949Z,66.65
2023-03-30T00:21:00.140Z,61.52
2023-03-30T00:21:55.680Z,67.63
2023-03-30T00:22:50.645Z,65.43
2023-03-30T00:23:45.854Z,67.63
2023-03-30T00:24:41.105Z,66.41
2023-03-30T00:25:36.413Z,68.12
2023-03-30T00:26:31.655Z,64.45
2023-03-30T00:27:26.780Z,63.96
2023-03-30T00:28:22.134Z,64.94
2023-03-30T00:29:17.184Z,63.96
2023-03-30T00:30:12.682Z,66.41
2023-03-30T00:31:07.719Z,64.70
2023-03-30T00:32:03.047Z,67.87
2023-03-30T00:32:58.034Z,65.67
2023-03-30T00:33:53.268Z,66.41
2023-03-30T00:34:48.608Z,67.87
2023-03-30T00:35:43.756Z,67.38
2023-03-30T00:36:39.135Z,66.41
2023-03-30T00:37:34.195Z,65.92
2023-03-30T00:38:29.519Z,68.60
2023-03-30T00:39:24.742Z,65.92
2023-03-30T00:40:22.540Z,67.87
2023-03-30T00:41:17.684Z,67.14
2023-03-30T00:42:12.918Z,67.87
2023-03-30T00:43:08.165Z,66.65
2023-03-30T00:44:03.522Z,62.50
2023-03-30T00:44:58.742Z,67.14
2023-03-30T00:45:53.757Z,64.70
2023-03-30T00:46:49.013Z,68.12
2023-03-30T00:47:43.832Z,64.45
2023-03-30T00:48:38.928Z,67.87
2023-03-30T00:49:34.072Z,65.43
2023-03-30T00:50:29.238Z,67.87
2023-03-30T00:51:24.185Z,96.68
2023-03-30T00:52:19.499Z,83.50
2023-03-30T00:53:14.286Z,90.82
2023-03-30T00:54:09.435Z,79.10
2023-03-30T00:55:04.422Z,99.12
2023-03-30T00:55:59.516Z,69.58
2023-03-30T00:56:54.677Z,68.60
2023-03-30T00:57:49.602Z,67.63
2023-03-30T00:58:44.678Z,66.65
2023-03-30T00:59:39.806Z,65.92
2023-03-30T01:00:34.871Z,65.67
2023-03-30T01:01:29.976Z,65.67
2023-03-30T01:02:25.274Z,66.65
2023-03-30T01:03:20.246Z,66.41
2023-03-30T01:04:15.130Z,68.85
2023-03-30T01:05:10.224Z,71.29
2023-03-30T01:06:05.276Z,66.89
2023-03-30T01:07:00.386Z,72.27
2023-03-30T01:07:55.558Z,69.34
2023-03-30T01:08:50.424Z,69.34
2023-03-30T01:09:45.483Z,64.70
2023-03-30T01:10:40.598Z,70.56
2023-03-30T01:11:35.563Z,69.09
2023-03-30T01:12:30.792Z,67.87
2023-03-30T01:13:28.301Z,87.65
2023-03-30T01:14:23.354Z,68.85
2023-03-30T01:15:18.438Z,68.60
2023-03-30T01:16:13.649Z,69.09
2023-03-30T01:17:08.563Z,74.22
2023-03-30T01:18:03.825Z,65.19
2023-03-30T01:18:58.863Z,67.87
2023-03-30T01:19:53.972Z,66.41
2023-03-30T01:20:48.935Z,63.96
2023-03-30T01:21:44.044Z,67.87
2023-03-30T01:22:39.016Z,64.45
2023-03-30T01:23:34.281Z,64.70
2023-03-30T01:24:29.280Z,64.70
2023-03-30T01:25:24.275Z,92.04
2023-03-30T01:26:19.336Z,65.67
2023-03-30T01:27:14.489Z,67.63
2023-03-30T01:28:09.773Z,65.67
2023-03-30T01:29:04.593Z,67.14
2023-03-30T01:30:02.372Z,85.21
2023-03-30T01:30:57.527Z,66.89
2023-03-30T01:31:52.449Z,66.41
2023-03-30T01:32:47.584Z,66.16
2023-03-30T01:33:42.691Z,65.67
2023-03-30T01:34:37.654Z,69.58
2023-03-30T01:35:32.804Z,68.12
2023-03-30T01:36:27.977Z,68.85
2023-03-30T01:37:22.909Z,66.89
2023-03-30T01:38:18.019Z,68.60
2023-03-30T01:39:13.119Z,68.12
2023-03-30T01:40:08.157Z,65.92
2023-03-30T01:41:03.329Z,66.65
2023-03-30T01:41:58.370Z,67.63
2023-03-30T01:42:53.358Z,83.50
2023-03-30T01:43:48.564Z,67.14
2023-03-30T01:44:45.008Z,65.92
2023-03-30T01:45:40.129Z,67.63
2023-03-30T01:46:35.230Z,68.60
2023-03-30T01:47:30.357Z,70.56
2023-03-30T01:48:25.346Z,66.16
2023-03-30T01:49:20.583Z,67.87
2023-03-30T01:50:15.434Z,66.89
2023-03-30T01:51:10.494Z,67.87
2023-03-30T01:52:05.464Z,68.36
2023-03-30T01:53:00.574Z,66.41
2023-03-30T01:53:55.580Z,66.16
2023-03-30T01:54:50.737Z,67.63
2023-03-30T01:55:46.528Z,68.12
2023-03-30T01:56:41.857Z,87.16
2023-03-30T01:57:37.074Z,71.78
2023-03-30T01:58:32.795Z,74.22
2023-03-30T01:59:27.956Z,79.35
2023-03-30T02:00:23.827Z,94.97
2023-03-30T02:01:19.046Z,75.20
2023-03-30T02:02:14.400Z,76.66
2023-03-30T02:03:10.271Z,76.90
2023-03-30T02:04:05.540Z,77.15
2023-03-30T02:05:00.600Z,75.44
2023-03-30T02:05:57.133Z,72.02
2023-03-30T02:06:52.374Z,74.95
2023-03-30T02:07:48.315Z,80.57
2023-03-30T02:08:43.503Z,84.23
2023-03-30T02:09:38.800Z,84.23
2023-03-30T02:10:34.454Z,89.60
2023-03-30T02:11:29.726Z,79.83
2023-03-30T02:12:25.647Z,83.25
2023-03-30T02:13:20.954Z,79.35
2023-03-30T02:14:16.219Z,78.12
2023-03-30T02:15:12.125Z,88.13
2023-03-30T02:16:07.503Z,81.79
2023-03-30T02:17:02.855Z,79.59
2023-03-30T02:17:58.967Z,103.52
2023-03-30T02:18:54.411Z,77.39
2023-03-30T02:19:50.072Z,73.97
2023-03-30T02:20:45.362Z,90.09
2023-03-30T02:21:40.726Z,78.61
2023-03-30T02:22:36.417Z,79.10
2023-03-30T02:23:31.657Z,81.05
2023-03-30T02:24:27.788Z,74.46
2023-03-30T02:25:22.767Z,73.49
2023-03-30T02:26:18.311Z,72.75
2023-03-30T02:27:13.995Z,72.51
2023-03-30T02:28:09.304Z,74.71
2023-03-30T02:29:04.528Z,78.37
2023-03-30T02:30:00.743Z,83.01
2023-03-30T02:30:56.010Z,89.11
2023-03-30T02:31:51.986Z,83.74
2023-03-30T02:32:47.082Z,71.53
2023-03-30T02:33:42.242Z,72.51
2023-03-30T02:34:38.248Z,95.21
2023-03-30T02:35:33.372Z,69.82
2023-03-30T02:36:29.169Z,69.82
2023-03-30T02:37:24.265Z,67.38
2023-03-30T02:38:19.522Z,68.60
2023-03-30T02:39:15.431Z,72.02
2023-03-30T02:40:10.596Z,75.20
2023-03-30T02:41:06.033Z,70.07
2023-03-30T02:42:01.069Z,91.06
2023-03-30T02:42:57.678Z,69.09
2023-03-30T02:43:52.895Z,75.93
2023-03-30T02:44:48.150Z,69.09
2023-03-30T02:45:44.059Z,68.85
2023-03-30T02:46:39.274Z,69.82
2023-03-30T02:47:34.514Z,76.42
2023-03-30T02:48:30.874Z,70.07
2023-03-30T02:49:26.006Z,70.56
2023-03-30T02:50:22.277Z,69.34
2023-03-30T02:51:17.219Z,88.38
2023-03-30T02:52:12.446Z,72.75
2023-03-30T02:53:08.376Z,106.45
2023-03-30T02:54:03.540Z,72.02
2023-03-30T02:54:59.626Z,79.83
2023-03-30T02:55:54.549Z,77.64
2023-03-30T02:56:50.044Z,73.00
2023-03-30T02:57:45.580Z,80.08
2023-03-30T02:58:40.806Z,80.57
2023-03-30T02:59:36.221Z,85.45
2023-03-30T03:00:31.325Z,85.21
2023-03-30T03:01:26.690Z,88.38
2023-03-30T03:02:22.295Z,82.03
2023-03-30T03:03:17.675Z,88.87
2023-03-30T03:04:12.519Z,75.68
2023-03-30T03:05:08.596Z,79.35
2023-03-30T03:06:03.433Z,80.57
2023-03-30T03:06:58.832Z,77.88
2023-03-30T03:07:53.961Z,84.72
2023-03-30T03:08:48.948Z,81.05
2023-03-30T03:09:43.959Z,83.01
2023-03-30T03:10:39.133Z,82.28
2023-03-30T03:11:34.110Z,90.09
2023-03-30T03:12:29.230Z,89.11
2023-03-30T03:13:24.207Z,78.86
2023-03-30T03:14:19.346Z,78.86
2023-03-30T03:15:14.504Z,94.24
2023-03-30T03:16:09.425Z,95.95
2023-03-30T03:17:04.408Z,78.61
2023-03-30T03:17:59.430Z,79.59
2023-03-30T03:18:54.559Z,82.52
2023-03-30T03:19:49.518Z,100.34
2023-03-30T03:20:44.644Z,82.76
2023-03-30T03:23:04.906Z,81.30
2023-03-30T03:24:00.126Z,81.05
2023-03-30T03:24:55.230Z,80.57
2023-03-30T03:25:50.685Z,94.24
2023-03-30T03:26:45.819Z,86.18
2023-03-30T03:27:41.016Z,79.83
2023-03-30T03:28:36.295Z,77.88
2023-03-30T03:29:31.516Z,75.93
2023-03-30T03:30:26.734Z,115.72
2023-03-30T03:31:22.037Z,95.21
2023-03-30T03:32:17.237Z,100.10
2023-03-30T03:33:12.559Z,82.28
2023-03-30T03:34:07.696Z,101.56
2023-03-30T03:35:02.931Z,98.14
2023-03-30T03:35:58.550Z,74.95
2023-03-30T03:36:53.488Z,76.90
2023-03-30T03:37:48.776Z,110.35
2023-03-30T03:38:43.958Z,104.00
2023-03-30T03:39:39.169Z,82.28
2023-03-30T03:40:34.526Z,86.18
2023-03-30T03:41:29.650Z,91.31
2023-03-30T03:42:24.844Z,96.92
2023-03-30T03:43:20.287Z,79.83
2023-03-30T03:44:15.407Z,87.16
2023-03-30T03:45:10.635Z,78.86
2023-03-30T03:46:05.913Z,93.99
2023-03-30T03:47:01.220Z,80.32
2023-03-30T03:47:56.361Z,82.76
2023-03-30T03:48:51.568Z,100.10
2023-03-30T03:49:46.852Z,105.96
2023-03-30T03:50:42.153Z,84.72
2023-03-30T03:51:37.301Z,89.60
2023-03-30T03:52:32.553Z,99.12
2023-03-30T03:53:27.966Z,75.68
2023-03-30T03:54:23.072Z,86.43
2023-03-30T03:55:18.437Z,75.93
2023-03-30T03:56:13.468Z,76.66
2023-03-30T03:57:08.776Z,84.72
2023-03-30T03:58:03.976Z,75.68
2023-03-30T03:58:59.204Z,94.48
2023-03-30T03:59:54.495Z,106.69
2023-03-30T04:00:50.043Z,90.33
2023-03-30T04:01:45.092Z,88.87
2023-03-30T04:02:40.317Z,94.73
2023-03-30T04:03:35.662Z,81.79
2023-03-30T04:04:30.846Z,89.11
2023-03-30T04:05:26.084Z,77.88
2023-03-30T04:06:21.025Z,75.44
2023-03-30T04:07:16.300Z,91.31
2023-03-30T04:08:11.555Z,91.06
2023-03-30T04:09:06.848Z,101.81
2023-03-30T04:10:02.246Z,80.57
2023-03-30T04:10:57.330Z,94.73
2023-03-30T04:11:52.551Z,78.37
2023-03-30T04:12:47.843Z,74.22
2023-03-30T04:13:43.153Z,78.61
2023-03-30T04:14:38.275Z,79.10
2023-03-30T04:15:33.689Z,86.18
2023-03-30T04:16:28.897Z,91.55
2023-03-30T04:17:24.070Z,84.96
2023-03-30T04:18:19.195Z,111.57
2023-03-30T04:19:14.370Z,97.17
2023-03-30T04:20:09.833Z,93.02
2023-03-30T04:21:05.005Z,106.69
2023-03-30T04:22:00.051Z,105.47
2023-03-30T04:22:55.274Z,84.96
2023-03-30T04:23:50.674Z,93.99
2023-03-30T04:24:45.818Z,77.15
2023-03-30T04:25:41.245Z,88.87
2023-03-30T04:26:36.185Z,85.45
2023-03-30T04:27:31.407Z,78.12
2023-03-30T04:28:26.601Z,113.04
2023-03-30T04:29:21.946Z,99.85
2023-03-30T04:30:17.308Z,103.27
2023-03-30T04:31:12.573Z,99.37
2023-03-30T04:32:07.801Z,86.67
2023-03-30T04:33:03.412Z,97.17
2023-03-30T04:33:58.358Z,97.90
2023-03-30T04:34:53.572Z,81.54
2023-03-30T04:35:48.656Z,94.73
2023-03-30T04:36:43.897Z,78.12
2023-03-30T04:37:39.106Z,107.67
2023-03-30T04:38:34.353Z,100.34
2023-03-30T04:39:29.575Z,83.50
2023-03-30T04:40:24.944Z,83.74
2023-03-30T04:41:19.987Z,86.91
2023-03-30T04:42:15.269Z,74.71
2023-03-30T04:43:10.473Z,110.11
2023-03-30T04:44:05.925Z,111.82
2023-03-30T04:45:01.231Z,89.11
2023-03-30T04:45:56.368Z,77.39
2023-03-30T04:46:51.543Z,89.84
2023-03-30T04:47:46.834Z,82.76
2023-03-30T04:48:41.903Z,95.70
2023-03-30T04:49:37.224Z,96.44
2023-03-30T04:50:32.673Z,87.16
2023-03-30T04:51:27.865Z,102.54
2023-03-30T04:52:23.106Z,102.78
2023-03-30T04:53:18.329Z,107.67
2023-03-30T04:54:13.568Z,90.82
2023-03-30T04:55:08.927Z,98.39
2023-03-30T04:56:04.045Z,113.53
2023-03-30T04:56:59.451Z,111.82
2023-03-30T04:57:54.703Z,98.63
2023-03-30T04:58:49.983Z,96.19
2023-03-30T04:59:45.155Z,84.23
2023-03-30T05:00:40.635Z,86.67
2023-03-30T05:01:35.702Z,122.31
2023-03-30T05:02:31.098Z,97.41
2023-03-30T05:03:26.255Z,98.63
2023-03-30T05:04:21.616Z,105.47
2023-03-30T05:05:16.927Z,107.67
2023-03-30T05:06:12.158Z,100.59
2023-03-30T05:07:07.394Z,102.54
2023-03-30T05:08:02.867Z,98.88
2023-03-30T05:08:58.119Z,100.59
2023-03-30T05:09:53.717Z,95.21
2023-03-30T05:10:48.865Z,98.14
2023-03-30T05:11:44.301Z,105.22
2023-03-30T05:12:39.626Z,98.63
2023-03-30T05:13:35.034Z,105.96
2023-03-30T05:14:30.405Z,83.50
2023-03-30T05:15:25.944Z,93.26
2023-03-30T05:16:21.102Z,95.95
2023-03-30T05:17:16.419Z,76.42
2023-03-30T05:18:12.267Z,104.74
2023-03-30T05:19:07.512Z,82.76
2023-03-30T05:20:02.773Z,101.56
2023-03-30T05:20:58.222Z,115.48
2023-03-30T05:21:53.680Z,91.31
2023-03-30T05:22:48.707Z,105.22
2023-03-30T05:23:43.870Z,99.61
2023-03-30T05:24:38.958Z,99.12
2023-03-30T05:25:35.727Z,100.83
2023-03-30T05:26:30.910Z,100.10
2023-03-30T05:27:25.847Z,102.29
2023-03-30T05:28:20.889Z,109.62
2023-03-30T05:29:16.018Z,114.26
2023-03-30T05:30:11.187Z,94.73
2023-03-30T05:31:06.402Z,103.03
2023-03-30T05:32:01.275Z,107.42
2023-03-30T05:32:56.544Z,113.53
2023-03-30T05:33:51.709Z,97.90
2023-03-30T05:34:46.998Z,99.85
2023-03-30T05:35:41.836Z,88.62
2023-03-30T05:36:36.889Z,89.36
2023-03-30T05:37:31.952Z,111.08
2023-03-30T05:38:27.025Z,78.61
2023-03-30T05:39:22.072Z,105.22
2023-03-30T05:40:17.550Z,95.95
2023-03-30T05:41:12.845Z,81.79
2023-03-30T05:42:08.230Z,94.97
2023-03-30T05:43:03.496Z,91.31
2023-03-30T05:43:58.932Z,88.38
2023-03-30T05:44:54.499Z,104.25
2023-03-30T05:45:49.693Z,97.90
2023-03-30T05:46:45.103Z,104.74
2023-03-30T05:47:40.380Z,96.44
2023-03-30T05:48:35.680Z,101.07
2023-03-30T05:49:31.234Z,111.33
2023-03-30T05:50:26.425Z,81.79
2023-03-30T05:51:22.076Z,104.25
2023-03-30T05:52:17.088Z,93.26
2023-03-30T05:53:12.125Z,106.69
2023-03-30T05:54:07.096Z,101.56
2023-03-30T05:55:02.250Z,96.92
2023-03-30T05:55:57.265Z,97.41
2023-03-30T05:56:52.577Z,111.57
2023-03-30T05:57:47.463Z,106.69
2023-03-30T05:58:42.705Z,99.12
2023-03-30T05:59:43.629Z,104.49
2023-03-30T06:00:38.892Z,79.59
2023-03-30T06:01:34.224Z,96.92
2023-03-30T06:02:30.059Z,88.13
2023-03-30T06:03:25.443Z,106.93
2023-03-30T06:04:20.945Z,98.63
2023-03-30T06:05:17.340Z,99.37
2023-03-30T06:06:12.717Z,104.00
2023-03-30T06:07:08.484Z,97.90
2023-03-30T06:08:03.980Z,90.58
2023-03-30T06:08:59.429Z,112.06
2023-03-30T06:09:55.417Z,97.66
2023-03-30T06:10:50.805Z,94.73
2023-03-30T06:11:46.656Z,92.53
2023-03-30T06:12:42.003Z,100.10
2023-03-30T06:13:37.548Z,78.86
2023-03-30T06:14:33.608Z,100.10
2023-03-30T06:15:28.846Z,78.61
2023-03-30T06:16:24.301Z,91.55
2023-03-30T06:17:20.544Z,104.25
2023-03-30T06:18:15.892Z,97.17
2023-03-30T06:19:11.857Z,90.09
2023-03-30T06:20:07.200Z,97.17
2023-03-30T06:21:03.170Z,112.55
2023-03-30T06:21:58.462Z,113.04
2023-03-30T06:22:53.811Z,96.44
2023-03-30T06:23:49.880Z,90.58
2023-03-30T06:24:44.971Z,109.38
2023-03-30T06:25:40.345Z,112.06
2023-03-30T06:26:36.237Z,107.91
2023-03-30T06:27:31.576Z,104.00
2023-03-30T06:28:27.051Z,99.37
2023-03-30T06:29:23.432Z,98.14
2023-03-30T06:30:18.644Z,93.99
2023-03-30T06:31:14.550Z,97.41
2023-03-30T06:32:09.965Z,102.54
2023-03-30T06:33:05.500Z,86.67
2023-03-30T06:34:01.305Z,108.89
2023-03-30T06:34:56.481Z,90.09
2023-03-30T06:35:52.281Z,104.25
2023-03-30T06:36:47.634Z,97.90
2023-03-30T06:37:43.085Z,97.90
2023-03-30T06:38:38.901Z,105.47
2023-03-30T06:39:34.040Z,80.81
2023-03-30T06:40:29.299Z,98.14
2023-03-30T06:41:25.785Z,94.97
2023-03-30T06:42:21.164Z,96.92
2023-03-30T06:43:16.974Z,89.84
2023-03-30T06:44:12.307Z,90.82
2023-03-30T06:45:07.631Z,99.37
2023-03-30T06:46:03.391Z,105.22
2023-03-30T06:46:58.689Z,90.09
2023-03-30T06:47:54.399Z,114.99
2023-03-30T06:48:49.897Z,89.60
2023-03-30T06:49:45.133Z,93.99
2023-03-30T06:50:40.911Z,105.96
2023-03-30T06:51:36.249Z,85.94
2023-03-30T06:52:31.697Z,85.94
2023-03-30T06:53:27.906Z,102.54
2023-03-30T06:54:23.279Z,81.79
2023-03-30T06:55:19.024Z,103.03
2023-03-30T06:56:14.559Z,94.48
2023-03-30T06:57:09.903Z,90.09
2023-03-30T06:58:05.843Z,88.62
2023-03-30T06:59:01.053Z,102.78
2023-03-30T06:59:56.653Z,97.17
2023-03-30T07:00:52.103Z,102.54
2023-03-30T07:01:47.832Z,90.58
2023-03-30T07:02:43.296Z,80.81
2023-03-30T07:03:38.856Z,86.91
2023-03-30T07:04:34.440Z,98.88
2023-03-30T07:05:29.889Z,73.00
2023-03-30T07:06:25.653Z,120.36
2023-03-30T07:07:21.117Z,86.18
2023-03-30T07:08:16.794Z,103.03
2023-03-30T07:09:12.330Z,91.06
2023-03-30T07:10:07.759Z,106.20
2023-03-30T07:11:03.543Z,88.13
2023-03-30T07:11:59.703Z,90.58
2023-03-30T07:12:55.150Z,81.54
2023-03-30T07:13:50.976Z,100.34
2023-03-30T07:14:46.323Z,93.75
2023-03-30T07:15:41.714Z,96.44
2023-03-30T07:16:37.799Z,83.98
2023-03-30T07:17:33.187Z,80.57
2023-03-30T07:18:28.666Z,106.20
2023-03-30T07:19:24.097Z,99.12
2023-03-30T07:20:19.594Z,85.69
2023-03-30T07:21:14.993Z,87.40
2023-03-30T07:22:10.032Z,91.31
2023-03-30T07:23:05.009Z,99.12
2023-03-30T07:24:00.104Z,87.65
2023-03-30T07:24:55.053Z,97.90
2023-03-30T07:25:50.151Z,108.89
2023-03-30T07:26:45.241Z,110.11
2023-03-30T07:27:40.264Z,105.47
2023-03-30T07:28:35.506Z,72.51
2023-03-30T07:29:31.424Z,93.75
2023-03-30T07:30:26.870Z,99.61
2023-03-30T07:31:22.305Z,103.27
2023-03-30T07:32:17.831Z,88.13
2023-03-30T07:33:13.011Z,96.68
2023-03-30T07:34:07.824Z,97.90
2023-03-30T07:35:02.981Z,93.75
2023-03-30T07:35:58.123Z,101.07
2023-03-30T07:36:54.629Z,95.21
2023-03-30T07:37:51.251Z,103.03
2023-03-30T07:38:46.030Z,77.88
2023-03-30T07:39:40.876Z,97.90
2023-03-30T07:40:36.002Z,91.80
2023-03-30T07:41:30.985Z,78.61
2023-03-30T07:42:26.119Z,78.12
2023-03-30T07:43:21.256Z,103.76
2023-03-30T07:44:16.173Z,101.07
2023-03-30T07:45:11.536Z,119.87
2023-03-30T07:46:06.224Z,96.19
2023-03-30T07:47:01.244Z,104.00
2023-03-30T07:47:56.367Z,97.17
2023-03-30T07:48:51.544Z,100.34
2023-03-30T07:49:46.499Z,97.17
2023-03-30T07:50:41.566Z,108.64
2023-03-30T07:51:36.588Z,102.54
2023-03-30T07:52:31.551Z,102.05
2023-03-30T07:53:26.821Z,82.03
2023-03-30T07:54:21.797Z,107.67
2023-03-30T07:55:17.093Z,88.87
2023-03-30T07:56:12.015Z,107.42
2023-03-30T07:57:09.000Z,94.73
2023-03-30T07:58:03.982Z,101.81
2023-03-30T07:59:00.975Z,96.44
2023-03-30T07:59:54.052Z,106.69
2023-03-30T08:00:49.088Z,96.68
2023-03-30T08:01:44.093Z,106.69
2023-03-30T08:02:39.306Z,101.81
2023-03-30T08:03:34.280Z,84.47
2023-03-30T08:04:29.332Z,96.44
2023-03-30T08:05:24.760Z,87.65
2023-03-30T08:06:21.057Z,82.76
2023-03-30T08:07:16.436Z,87.65
2023-03-30T08:08:12.435Z,87.40
2023-03-30T08:09:07.826Z,81.79
2023-03-30T08:10:03.339Z,74.46
2023-03-30T08:10:59.160Z,95.95
2023-03-30T08:11:54.538Z,97.17
2023-03-30T08:12:50.529Z,105.22
2023-03-30T08:13:45.733Z,89.36
2023-03-30T08:14:41.131Z,90.09
2023-03-30T08:15:36.905Z,83.50
2023-03-30T08:16:32.413Z,107.67
2023-03-30T08:17:27.969Z,82.03
2023-03-30T08:18:25.536Z,96.68
2023-03-30T08:19:19.615Z,100.34
2023-03-30T08:20:15.507Z,81.54
2023-03-30T08:21:10.998Z,82.03
2023-03-30T08:22:06.427Z,100.34
2023-03-30T08:23:02.395Z,100.83
2023-03-30T08:23:57.650Z,93.99
2023-03-30T08:24:53.490Z,72.27
2023-03-30T08:25:48.795Z,80.57
2023-03-30T08:26:44.376Z,73.00
2023-03-30T08:27:40.305Z,83.98
2023-03-30T08:28:35.550Z,99.61
2023-03-30T08:29:30.910Z,97.17
2023-03-30T08:30:27.255Z,100.34
2023-03-30T08:31:22.739Z,93.02
2023-03-30T08:32:18.738Z,88.13
2023-03-30T08:33:14.055Z,105.71
2023-03-30T08:34:09.429Z,100.83
2023-03-30T08:35:05.100Z,107.67
2023-03-30T08:36:00.737Z,88.38
2023-03-30T08:36:56.464Z,83.01
2023-03-30T08:37:52.039Z,76.66
2023-03-30T08:38:47.370Z,106.69
2023-03-30T08:39:43.132Z,92.77
2023-03-30T08:40:38.415Z,95.21
2023-03-30T08:41:34.764Z,85.69
2023-03-30T08:42:30.205Z,88.38
2023-03-30T08:43:26.056Z,82.28
2023-03-30T08:44:21.283Z,83.01
2023-03-30T08:45:16.706Z,96.19
2023-03-30T08:46:12.702Z,104.00
2023-03-30T08:47:08.053Z,102.54
2023-03-30T08:48:04.019Z,81.30
2023-03-30T08:48:59.267Z,105.71
2023-03-30T08:49:54.722Z,98.14
2023-03-30T08:50:50.386Z,87.16
2023-03-30T08:51:45.738Z,91.31
2023-03-30T08:52:41.149Z,74.22
2023-03-30T08:53:37.363Z,89.11
2023-03-30T08:54:32.775Z,83.25
2023-03-30T08:55:28.542Z,105.22
2023-03-30T08:56:24.070Z,91.55
2023-03-30T08:57:20.928Z,104.74
2023-03-30T08:58:14.935Z,85.94
2023-03-30T08:59:10.416Z,89.11
2023-03-30T09:00:05.888Z,92.04
2023-03-30T09:01:01.221Z,90.09
2023-03-30T09:01:57.130Z,85.69
2023-03-30T09:02:52.533Z,97.41
2023-03-30T09:03:48.217Z,76.17
2023-03-30T09:04:43.937Z,75.93
2023-03-30T09:05:39.435Z,102.78
2023-03-30T09:06:34.735Z,89.84
2023-03-30T09:07:30.264Z,81.54
2023-03-30T09:08:25.220Z,68.60
2023-03-30T09:09:20.254Z,86.91
2023-03-30T09:10:15.262Z,88.13
2023-03-30T09:11:10.401Z,86.91
2023-03-30T09:12:05.398Z,79.83
2023-03-30T09:13:00.493Z,91.80
2023-03-30T09:13:55.727Z,98.88
2023-03-30T09:14:50.615Z,72.02
2023-03-30T09:15:45.574Z,83.98
2023-03-30T09:16:40.743Z,97.90
2023-03-30T09:17:35.961Z,74.46
2023-03-30T09:18:30.952Z,84.96
2023-03-30T09:19:25.949Z,100.34
2023-03-30T09:20:21.091Z,105.47
2023-03-30T09:21:16.056Z,94.48
2023-03-30T09:22:11.139Z,105.96
2023-03-30T09:23:06.109Z,82.76
2023-03-30T09:24:01.347Z,74.22
2023-03-30T09:24:56.266Z,76.90
2023-03-30T09:25:51.287Z,95.95
2023-03-30T09:26:46.368Z,97.41
2023-03-30T09:27:41.469Z,99.85
2023-03-30T09:28:41.736Z,96.92
2023-03-30T09:29:37.037Z,92.04
2023-03-30T09:30:32.514Z,103.27
2023-03-30T09:31:28.144Z,100.34
2023-03-30T09:32:23.533Z,85.94
2023-03-30T09:33:18.861Z,93.99
2023-03-30T09:34:15.593Z,92.04
2023-03-30T09:35:10.772Z,97.17
2023-03-30T09:36:06.794Z,98.14
2023-03-30T09:37:01.892Z,105.96
2023-03-30T09:37:57.313Z,92.29
2023-03-30T09:38:53.097Z,91.31
2023-03-30T09:39:48.364Z,87.65
2023-03-30T09:40:44.011Z,120.36
2023-03-30T09:41:39.498Z,105.22
2023-03-30T09:42:34.862Z,116.21
2023-03-30T09:43:30.643Z,101.56
2023-03-30T09:44:26.120Z,110.60
2023-03-30T09:45:21.318Z,96.92
2023-03-30T09:46:17.876Z,97.17
2023-03-30T09:47:13.357Z,89.11
2023-03-30T09:48:09.182Z,104.98
2023-03-30T09:49:04.669Z,96.92
2023-03-30T09:50:00.003Z,99.85
2023-03-30T09:50:55.805Z,95.46
2023-03-30T09:51:51.139Z,105.47
2023-03-30T09:52:47.018Z,96.19
2023-03-30T09:53:42.389Z,83.50
2023-03-30T09:54:37.687Z,115.48
2023-03-30T09:55:33.425Z,104.49
2023-03-30T09:56:28.917Z,119.38
2023-03-30T09:57:24.367Z,113.28
2023-03-30T09:58:20.638Z,97.66
2023-03-30T09:59:16.169Z,117.68
2023-03-30T10:00:11.965Z,102.54
2023-03-30T10:01:07.418Z,106.69
2023-03-30T10:02:02.934Z,106.93
2023-03-30T10:02:58.749Z,87.16
2023-03-30T10:03:54.195Z,119.87
2023-03-30T10:04:50.008Z,104.74
2023-03-30T10:05:45.267Z,76.90
2023-03-30T10:06:40.650Z,100.83
2023-03-30T10:07:36.388Z,92.77
2023-03-30T10:08:31.752Z,101.56
2023-03-30T10:09:27.394Z,101.81
2023-03-30T10:10:23.483Z,97.90
2023-03-30T10:11:18.998Z,115.48
2023-03-30T10:12:14.783Z,93.02
2023-03-30T10:13:10.394Z,99.37
2023-03-30T10:14:05.741Z,101.81
2023-03-30T10:15:01.578Z,105.47
2023-03-30T10:15:56.969Z,98.14
2023-03-30T10:16:52.927Z,95.70
2023-03-30T10:17:48.046Z,112.55
2023-03-30T10:18:43.492Z,78.61
2023-03-30T10:19:41.815Z,96.68
2023-03-30T10:20:35.522Z,89.11
2023-03-30T10:21:29.933Z,93.26
2023-03-30T10:22:25.018Z,83.01
2023-03-30T10:23:20.077Z,103.03
2023-03-30T10:24:15.187Z,85.21
2023-03-30T10:25:10.435Z,108.89
2023-03-30T10:26:05.463Z,112.79
2023-03-30T10:27:00.323Z,104.49
2023-03-30T10:27:55.408Z,90.58
2023-03-30T10:28:50.514Z,105.71
2023-03-30T10:29:45.822Z,117.92
2023-03-30T10:30:40.634Z,109.38
2023-03-30T10:31:35.732Z,94.73
2023-03-30T10:32:30.818Z,95.95
2023-03-30T10:33:25.886Z,101.81
2023-03-30T10:34:20.979Z,102.29
2023-03-30T10:35:16.163Z,95.21
2023-03-30T10:36:11.091Z,104.98
2023-03-30T10:37:06.217Z,102.78
2023-03-30T10:38:01.574Z,98.88
2023-03-30T10:38:57.338Z,119.63
2023-03-30T10:39:52.833Z,99.85
2023-03-30T10:40:48.217Z,98.88
2023-03-30T10:41:43.534Z,91.06
2023-03-30T10:42:38.998Z,98.63
2023-03-30T10:43:34.416Z,110.11
2023-03-30T10:44:31.262Z,83.74
2023-03-30T10:45:26.922Z,105.71
2023-03-30T10:46:23.026Z,106.93
2023-03-30T10:47:18.174Z,111.82
2023-03-30T10:48:13.669Z,101.56
2023-03-30T10:49:09.055Z,115.48
2023-03-30T10:50:05.846Z,107.18
2023-03-30T10:51:01.063Z,100.10
2023-03-30T10:51:56.517Z,90.58
2023-03-30T10:52:58.577Z,95.46
2023-03-30T10:53:48.002Z,103.52
2023-03-30T10:54:42.207Z,99.85
2023-03-30T10:55:37.068Z,109.86
2023-03-30T10:56:32.068Z,82.76
2023-03-30T10:57:27.296Z,79.10
2023-03-30T10:58:22.184Z,74.22
2023-03-30T10:59:17.184Z,83.98
2023-03-30T11:00:12.311Z,103.03
2023-03-30T11:01:07.377Z,100.34
2023-03-30T11:02:02.352Z,94.73
2023-03-30T11:02:57.548Z,108.64
2023-03-30T11:03:52.569Z,91.06
2023-03-30T11:04:47.592Z,96.68
2023-03-30T11:05:42.745Z,87.65
2023-03-30T11:06:37.633Z,123.78
2023-03-30T11:07:32.605Z,98.14
2023-03-30T11:08:28.019Z,112.79
2023-03-30T11:09:23.549Z,101.07
2023-03-30T11:10:19.127Z,98.14
2023-03-30T11:11:14.706Z,102.29
2023-03-30T11:12:10.142Z,110.35
2023-03-30T11:13:06.002Z,100.10
2023-03-30T11:14:01.332Z,83.01
2023-03-30T11:14:56.769Z,101.81
2023-03-30T11:15:52.688Z,102.29
2023-03-30T11:16:48.087Z,87.16
2023-03-30T11:17:43.603Z,93.75
2023-03-30T11:18:40.305Z,101.56
2023-03-30T11:19:35.794Z,87.89
2023-03-30T11:20:31.479Z,96.92
2023-03-30T11:21:27.005Z,90.33
2023-03-30T11:22:22.362Z,81.54
2023-03-30T11:23:18.225Z,97.66
2023-03-30T11:24:13.591Z,121.58
2023-03-30T11:25:09.558Z,97.90
2023-03-30T11:26:05.157Z,77.39
2023-03-30T11:27:00.233Z,94.24
2023-03-30T11:27:56.560Z,105.22
2023-03-30T11:28:51.526Z,92.29
2023-03-30T11:29:46.947Z,110.60
2023-03-30T11:30:43.562Z,89.60
2023-03-30T11:31:38.675Z,83.01
2023-03-30T11:32:34.648Z,73.49
2023-03-30T11:33:30.100Z,104.00
2023-03-30T11:34:25.548Z,83.50
2023-03-30T11:35:21.324Z,84.47
2023-03-30T11:36:16.855Z,84.96
2023-03-30T11:37:12.720Z,105.71
2023-03-30T11:38:08.085Z,93.02
2023-03-30T11:39:03.431Z,110.35
2023-03-30T11:39:59.291Z,92.77
2023-03-30T11:40:54.821Z,82.52
2023-03-30T11:41:50.289Z,69.58
2023-03-30T11:42:46.476Z,97.66
2023-03-30T11:43:41.958Z,103.03
2023-03-30T11:44:37.776Z,96.68
2023-03-30T11:45:33.340Z,93.51
2023-03-30T11:46:28.786Z,105.96
2023-03-30T11:47:24.506Z,102.29
2023-03-30T11:48:19.861Z,76.17
2023-03-30T11:49:15.952Z,87.89